Le Roy, Michigan
Current Conditions -  °F | °C
As of 2:14 PM on Friday 24 Oct 2014 (Local Time) from KCAD Reporting Station
Overcast Overcast  
Wind Chill: 51°   Ceiling: 700
Heat Index: 51°   Visibility: 10mi
Dew Point: 49°   Wind: 8mph
Humidity: 94%   Direction: 230°SW
Pressure: 29.98"   Gusts: NA
Location:  44.0236°N, 85.4348°W
Report Text: KCAD 241814Z AUTO 23007KT 10SM OVC007 10/09 A2998 RMK AO2 T01050095
Loading
Personal Weather Stations






























Interactive Weather Map
Tropical Storm Tracking
New forecast layout! Learn more

10-Day Weather Forecast

Advertisements
Track Severe Weather on mobile